<?xml version="1.0" encoding="UTF-8" standalone="no" ?>
<gpx xmlns="http://www.topografix.com/GPX/1/1" xmlns:xsi="http://www.w3.org/2001/XMLSchema-instance" xsi:schemaLocation="http://www.topografix.com/GPX/1/1 http://www.topografix.com/GPX/1/1/gpx.xsd" version="1.1" creator="VisuGPX - https://www.visugpx.com">
  <metadata>
    <name>GUILLAUMES BOUCHANIERE 13 KM 680 M</name>
    <desc><![CDATA[GUILLAUMES BOUCHANIERE 13 KM 680 M
IGN 3540 ET HAUTE VALLEE DU VAR]]></desc>
  </metadata>
  <trk>
    <name><![CDATA[--Guillaumes-- OR-5658738:GUILLAUMES BOUCHNIERE VALLON DU COLOMBIER 12 KM 670 M  ]]></name>
    <trkseg>
      <trkpt lat="44.08939" lon="6.85367">
        <ele>792</ele>
        <time>2016-03-16T15:36:30Z</time>
      </trkpt>
      <trkpt lat="44.08974" lon="6.85429">
        <ele>800</ele>
        <time>2016-03-16T15:38:30Z</time>
      </trkpt>
      <trkpt lat="44.08981" lon="6.85425">
        <ele>800</ele>
        <time>2016-03-16T15:40:30Z</time>
      </trkpt>
      <trkpt lat="44.08988" lon="6.85431">
        <ele>802</ele>
        <time>2016-03-16T15:42:30Z</time>
      </trkpt>
      <trkpt lat="44.08987" lon="6.8546">
        <ele>805</ele>
        <time>2016-03-16T15:44:30Z</time>
      </trkpt>
      <trkpt lat="44.08999" lon="6.85469">
        <ele>808</ele>
        <time>2016-03-16T15:46:30Z</time>
      </trkpt>
      <trkpt lat="44.09006" lon="6.85477">
        <ele>811</ele>
        <time>2016-03-16T15:48:30Z</time>
      </trkpt>
      <trkpt lat="44.09067" lon="6.85463">
        <ele>823</ele>
        <time>2016-03-16T15:50:30Z</time>
      </trkpt>
      <trkpt lat="44.09143" lon="6.85474">
        <ele>844</ele>
        <time>2016-03-16T15:52:30Z</time>
      </trkpt>
      <trkpt lat="44.09234" lon="6.85407">
        <ele>838</ele>
        <time>2016-03-16T15:54:30Z</time>
      </trkpt>
      <trkpt lat="44.09272" lon="6.85393">
        <ele>842</ele>
        <time>2016-03-16T15:56:30Z</time>
      </trkpt>
      <trkpt lat="44.09274" lon="6.85406">
        <ele>846</ele>
        <time>2016-03-16T15:58:30Z</time>
      </trkpt>
      <trkpt lat="44.09238" lon="6.85421">
        <ele>844</ele>
        <time>2016-03-16T16:00:30Z</time>
      </trkpt>
      <trkpt lat="44.09219" lon="6.85455">
        <ele>854</ele>
        <time>2016-03-16T16:02:30Z</time>
      </trkpt>
      <trkpt lat="44.09194" lon="6.85504">
        <ele>869</ele>
        <time>2016-03-16T16:04:30Z</time>
      </trkpt>
      <trkpt lat="44.09224" lon="6.85476">
        <ele>865</ele>
        <time>2016-03-16T16:06:30Z</time>
      </trkpt>
      <trkpt lat="44.09248" lon="6.85444">
        <ele>857</ele>
        <time>2016-03-16T16:08:30Z</time>
      </trkpt>
      <trkpt lat="44.09256" lon="6.85456">
        <ele>864</ele>
        <time>2016-03-16T16:10:30Z</time>
      </trkpt>
      <trkpt lat="44.09228" lon="6.85485">
        <ele>870</ele>
        <time>2016-03-16T16:12:30Z</time>
      </trkpt>
      <trkpt lat="44.09186" lon="6.85556">
        <ele>885</ele>
        <time>2016-03-16T16:14:30Z</time>
      </trkpt>
      <trkpt lat="44.09147" lon="6.85587">
        <ele>882</ele>
        <time>2016-03-16T16:16:30Z</time>
      </trkpt>
      <trkpt lat="44.09121" lon="6.8558">
        <ele>873</ele>
        <time>2016-03-16T16:18:30Z</time>
      </trkpt>
      <trkpt lat="44.09101" lon="6.85583">
        <ele>868</ele>
        <time>2016-03-16T16:20:30Z</time>
      </trkpt>
      <trkpt lat="44.09136" lon="6.85603">
        <ele>880</ele>
        <time>2016-03-16T16:22:30Z</time>
      </trkpt>
      <trkpt lat="44.09157" lon="6.85616">
        <ele>890</ele>
        <time>2016-03-16T16:24:30Z</time>
      </trkpt>
      <trkpt lat="44.09197" lon="6.85597">
        <ele>903</ele>
        <time>2016-03-16T16:26:30Z</time>
      </trkpt>
      <trkpt lat="44.09234" lon="6.85591">
        <ele>917</ele>
        <time>2016-03-16T16:28:30Z</time>
      </trkpt>
      <trkpt lat="44.09215" lon="6.85617">
        <ele>916</ele>
        <time>2016-03-16T16:30:30Z</time>
      </trkpt>
      <trkpt lat="44.09199" lon="6.85624">
        <ele>911</ele>
        <time>2016-03-16T16:32:30Z</time>
      </trkpt>
      <trkpt lat="44.0919" lon="6.8566">
        <ele>916</ele>
        <time>2016-03-16T16:34:30Z</time>
      </trkpt>
      <trkpt lat="44.09207" lon="6.85691">
        <ele>919</ele>
        <time>2016-03-16T16:36:30Z</time>
      </trkpt>
      <trkpt lat="44.09226" lon="6.85698">
        <ele>926</ele>
        <time>2016-03-16T16:38:30Z</time>
      </trkpt>
      <trkpt lat="44.09251" lon="6.85722">
        <ele>932</ele>
        <time>2016-03-16T16:40:30Z</time>
      </trkpt>
      <trkpt lat="44.0929" lon="6.85775">
        <ele>946</ele>
        <time>2016-03-16T16:42:30Z</time>
      </trkpt>
      <trkpt lat="44.0933" lon="6.85906">
        <ele>961</ele>
        <time>2016-03-16T16:44:30Z</time>
      </trkpt>
      <trkpt lat="44.09338" lon="6.86009">
        <ele>974</ele>
        <time>2016-03-16T16:46:30Z</time>
      </trkpt>
      <trkpt lat="44.09324" lon="6.86084">
        <ele>981</ele>
        <time>2016-03-16T16:48:30Z</time>
      </trkpt>
      <trkpt lat="44.09304" lon="6.86133">
        <ele>975</ele>
        <time>2016-03-16T16:50:30Z</time>
      </trkpt>
      <trkpt lat="44.0933" lon="6.86221">
        <ele>995</ele>
        <time>2016-03-16T16:52:30Z</time>
      </trkpt>
      <trkpt lat="44.09349" lon="6.86281">
        <ele>997</ele>
        <time>2016-03-16T16:54:30Z</time>
      </trkpt>
      <trkpt lat="44.09375" lon="6.86313">
        <ele>998</ele>
        <time>2016-03-16T16:56:30Z</time>
      </trkpt>
      <trkpt lat="44.09404" lon="6.86296">
        <ele>1013</ele>
        <time>2016-03-16T16:58:30Z</time>
      </trkpt>
      <trkpt lat="44.09376" lon="6.86238">
        <ele>1019</ele>
        <time>2016-03-16T17:00:30Z</time>
      </trkpt>
      <trkpt lat="44.09393" lon="6.86215">
        <ele>1032</ele>
        <time>2016-03-16T17:02:30Z</time>
      </trkpt>
      <trkpt lat="44.09386" lon="6.86184">
        <ele>1033</ele>
        <time>2016-03-16T17:04:30Z</time>
      </trkpt>
      <trkpt lat="44.09421" lon="6.86139">
        <ele>1056</ele>
        <time>2016-03-16T17:06:30Z</time>
      </trkpt>
      <trkpt lat="44.09421" lon="6.86107">
        <ele>1054</ele>
        <time>2016-03-16T17:08:30Z</time>
      </trkpt>
      <trkpt lat="44.09453" lon="6.86075">
        <ele>1074</ele>
        <time>2016-03-16T17:10:30Z</time>
      </trkpt>
      <trkpt lat="44.0946" lon="6.86152">
        <ele>1077</ele>
        <time>2016-03-16T17:12:30Z</time>
      </trkpt>
      <trkpt lat="44.0952" lon="6.86225">
        <ele>1074</ele>
        <time>2016-03-16T17:14:30Z</time>
      </trkpt>
      <trkpt lat="44.09581" lon="6.86172">
        <ele>1112</ele>
        <time>2016-03-16T17:16:30Z</time>
      </trkpt>
      <trkpt lat="44.09604" lon="6.86176">
        <ele>1105</ele>
        <time>2016-03-16T17:18:30Z</time>
      </trkpt>
      <trkpt lat="44.09658" lon="6.86105">
        <ele>1135</ele>
        <time>2016-03-16T17:20:30Z</time>
      </trkpt>
      <trkpt lat="44.09738" lon="6.86039">
        <ele>1143</ele>
        <time>2016-03-16T17:22:30Z</time>
      </trkpt>
      <trkpt lat="44.09771" lon="6.8606">
        <ele>1125</ele>
        <time>2016-03-16T17:24:30Z</time>
      </trkpt>
      <trkpt lat="44.09837" lon="6.86062">
        <ele>1116</ele>
        <time>2016-03-16T17:26:30Z</time>
      </trkpt>
      <trkpt lat="44.09857" lon="6.86041">
        <ele>1130</ele>
        <time>2016-03-16T17:28:30Z</time>
      </trkpt>
      <trkpt lat="44.09917" lon="6.86054">
        <ele>1133</ele>
        <time>2016-03-16T17:30:30Z</time>
      </trkpt>
      <trkpt lat="44.09968" lon="6.86109">
        <ele>1136</ele>
        <time>2016-03-16T17:32:30Z</time>
      </trkpt>
      <trkpt lat="44.10005" lon="6.86152">
        <ele>1142</ele>
        <time>2016-03-16T17:34:30Z</time>
      </trkpt>
      <trkpt lat="44.10051" lon="6.8621">
        <ele>1148</ele>
        <time>2016-03-16T17:36:30Z</time>
      </trkpt>
      <trkpt lat="44.10094" lon="6.86225">
        <ele>1168</ele>
        <time>2016-03-16T17:38:30Z</time>
      </trkpt>
      <trkpt lat="44.10168" lon="6.86298">
        <ele>1182</ele>
        <time>2016-03-16T17:40:30Z</time>
      </trkpt>
      <trkpt lat="44.10265" lon="6.86275">
        <ele>1202</ele>
        <time>2016-03-16T17:42:30Z</time>
      </trkpt>
      <trkpt lat="44.10359" lon="6.86238">
        <ele>1197</ele>
        <time>2016-03-16T17:44:30Z</time>
      </trkpt>
      <trkpt lat="44.10429" lon="6.8623">
        <ele>1196</ele>
        <time>2016-03-16T17:46:30Z</time>
      </trkpt>
      <trkpt lat="44.10611" lon="6.86139">
        <ele>1206</ele>
        <time>2016-03-16T17:48:30Z</time>
      </trkpt>
      <trkpt lat="44.1068" lon="6.86157">
        <ele>1215</ele>
        <time>2016-03-16T17:50:30Z</time>
      </trkpt>
      <trkpt lat="44.10755" lon="6.86219">
        <ele>1228</ele>
        <time>2016-03-16T17:52:30Z</time>
      </trkpt>
      <trkpt lat="44.10792" lon="6.86245">
        <ele>1236</ele>
        <time>2016-03-16T17:54:30Z</time>
      </trkpt>
      <trkpt lat="44.10839" lon="6.86247">
        <ele>1236</ele>
        <time>2016-03-16T17:56:30Z</time>
      </trkpt>
      <trkpt lat="44.1088" lon="6.86236">
        <ele>1233</ele>
        <time>2016-03-16T17:58:30Z</time>
      </trkpt>
      <trkpt lat="44.10913" lon="6.86257">
        <ele>1245</ele>
        <time>2016-03-16T18:00:30Z</time>
      </trkpt>
      <trkpt lat="44.1102" lon="6.86275">
        <ele>1245</ele>
        <time>2016-03-16T18:02:30Z</time>
      </trkpt>
      <trkpt lat="44.11067" lon="6.86309">
        <ele>1259</ele>
        <time>2016-03-16T18:04:30Z</time>
      </trkpt>
      <trkpt lat="44.11131" lon="6.86328">
        <ele>1265</ele>
        <time>2016-03-16T18:06:30Z</time>
      </trkpt>
      <trkpt lat="44.11207" lon="6.8632">
        <ele>1261</ele>
        <time>2016-03-16T18:08:30Z</time>
      </trkpt>
      <trkpt lat="44.11302" lon="6.86335">
        <ele>1270</ele>
        <time>2016-03-16T18:10:30Z</time>
      </trkpt>
      <trkpt lat="44.11341" lon="6.86315">
        <ele>1262</ele>
        <time>2016-03-16T18:12:30Z</time>
      </trkpt>
      <trkpt lat="44.1139" lon="6.86313">
        <ele>1265</ele>
        <time>2016-03-16T18:14:30Z</time>
      </trkpt>
      <trkpt lat="44.11429" lon="6.86309">
        <ele>1266</ele>
        <time>2016-03-16T18:16:30Z</time>
      </trkpt>
      <trkpt lat="44.11498" lon="6.86356">
        <ele>1283</ele>
        <time>2016-03-16T18:18:30Z</time>
      </trkpt>
      <trkpt lat="44.11566" lon="6.86438">
        <ele>1303</ele>
        <time>2016-03-16T18:20:30Z</time>
      </trkpt>
      <trkpt lat="44.11597" lon="6.86504">
        <ele>1314</ele>
        <time>2016-03-16T18:22:30Z</time>
      </trkpt>
      <trkpt lat="44.11672" lon="6.86564">
        <ele>1325</ele>
        <time>2016-03-16T18:24:30Z</time>
      </trkpt>
      <trkpt lat="44.11718" lon="6.86596">
        <ele>1336</ele>
        <time>2016-03-16T18:26:30Z</time>
      </trkpt>
      <trkpt lat="44.11766" lon="6.86637">
        <ele>1341</ele>
        <time>2016-03-16T18:28:30Z</time>
      </trkpt>
      <trkpt lat="44.11818" lon="6.8665">
        <ele>1350</ele>
        <time>2016-03-16T18:30:30Z</time>
      </trkpt>
      <trkpt lat="44.11879" lon="6.8668">
        <ele>1357</ele>
        <time>2016-03-16T18:32:30Z</time>
      </trkpt>
      <trkpt lat="44.1196" lon="6.86674">
        <ele>1377</ele>
        <time>2016-03-16T18:34:30Z</time>
      </trkpt>
      <trkpt lat="44.12014" lon="6.8668">
        <ele>1390</ele>
        <time>2016-03-16T18:36:30Z</time>
      </trkpt>
      <trkpt lat="44.12022" lon="6.8665">
        <ele>1397</ele>
        <time>2016-03-16T18:38:30Z</time>
      </trkpt>
      <trkpt lat="44.12066" lon="6.86635">
        <ele>1415</ele>
        <time>2016-03-16T18:40:30Z</time>
      </trkpt>
      <trkpt lat="44.1204" lon="6.8656">
        <ele>1422</ele>
        <time>2016-03-16T18:42:30Z</time>
      </trkpt>
      <trkpt lat="44.11971" lon="6.8647">
        <ele>1415</ele>
        <time>2016-03-16T18:44:30Z</time>
      </trkpt>
      <trkpt lat="44.11949" lon="6.86425">
        <ele>1407</ele>
        <time>2016-03-16T18:46:30Z</time>
      </trkpt>
      <trkpt lat="44.12023" lon="6.86232">
        <ele>1403</ele>
        <time>2016-03-16T18:48:30Z</time>
      </trkpt>
      <trkpt lat="44.11999" lon="6.86204">
        <ele>1390</ele>
        <time>2016-03-16T18:50:30Z</time>
      </trkpt>
      <trkpt lat="44.12016" lon="6.86165">
        <ele>1386</ele>
        <time>2016-03-16T18:52:30Z</time>
      </trkpt>
      <trkpt lat="44.12063" lon="6.86159">
        <ele>1400</ele>
        <time>2016-03-16T18:54:30Z</time>
      </trkpt>
      <trkpt lat="44.12119" lon="6.86002">
        <ele>1391</ele>
        <time>2016-03-16T18:56:30Z</time>
      </trkpt>
      <trkpt lat="44.1218" lon="6.85931">
        <ele>1379</ele>
        <time>2016-03-16T18:58:30Z</time>
      </trkpt>
      <trkpt lat="44.12208" lon="6.85912">
        <ele>1380</ele>
        <time>2016-03-16T19:00:30Z</time>
      </trkpt>
      <trkpt lat="44.122" lon="6.85893">
        <ele>1375</ele>
        <time>2016-03-16T19:02:30Z</time>
      </trkpt>
      <trkpt lat="44.12227" lon="6.85871">
        <ele>1380</ele>
        <time>2016-03-16T19:04:30Z</time>
      </trkpt>
      <trkpt lat="44.12213" lon="6.85777">
        <ele>1368</ele>
        <time>2016-03-16T19:06:30Z</time>
      </trkpt>
      <trkpt lat="44.12199" lon="6.85757">
        <ele>1362</ele>
        <time>2016-03-16T19:08:30Z</time>
      </trkpt>
      <trkpt lat="44.12208" lon="6.85734">
        <ele>1363</ele>
        <time>2016-03-16T19:10:30Z</time>
      </trkpt>
      <trkpt lat="44.12202" lon="6.85708">
        <ele>1358</ele>
        <time>2016-03-16T19:12:30Z</time>
      </trkpt>
      <trkpt lat="44.12207" lon="6.85633">
        <ele>1356</ele>
        <time>2016-03-16T19:14:30Z</time>
      </trkpt>
      <trkpt lat="44.12212" lon="6.8559">
        <ele>1359</ele>
        <time>2016-03-16T19:16:30Z</time>
      </trkpt>
      <trkpt lat="44.12194" lon="6.85609">
        <ele>1356</ele>
        <time>2016-03-16T19:18:30Z</time>
      </trkpt>
      <trkpt lat="44.12148" lon="6.85592">
        <ele>1357</ele>
        <time>2016-03-16T19:20:30Z</time>
      </trkpt>
      <trkpt lat="44.12088" lon="6.85639">
        <ele>1349</ele>
        <time>2016-03-16T19:22:30Z</time>
      </trkpt>
      <trkpt lat="44.12042" lon="6.8565">
        <ele>1344</ele>
        <time>2016-03-16T19:24:30Z</time>
      </trkpt>
      <trkpt lat="44.11997" lon="6.85629">
        <ele>1349</ele>
        <time>2016-03-16T19:26:30Z</time>
      </trkpt>
      <trkpt lat="44.11908" lon="6.85652">
        <ele>1340</ele>
        <time>2016-03-16T19:28:30Z</time>
      </trkpt>
      <trkpt lat="44.11885" lon="6.85704">
        <ele>1326</ele>
        <time>2016-03-16T19:30:30Z</time>
      </trkpt>
      <trkpt lat="44.11803" lon="6.85674">
        <ele>1331</ele>
        <time>2016-03-16T19:32:30Z</time>
      </trkpt>
      <trkpt lat="44.11704" lon="6.85646">
        <ele>1324</ele>
        <time>2016-03-16T19:34:30Z</time>
      </trkpt>
      <trkpt lat="44.11655" lon="6.85627">
        <ele>1317</ele>
        <time>2016-03-16T19:36:30Z</time>
      </trkpt>
      <trkpt lat="44.11552" lon="6.85463">
        <ele>1296</ele>
        <time>2016-03-16T19:38:30Z</time>
      </trkpt>
      <trkpt lat="44.11496" lon="6.85457">
        <ele>1279</ele>
        <time>2016-03-16T19:40:30Z</time>
      </trkpt>
      <trkpt lat="44.11424" lon="6.85457">
        <ele>1263</ele>
        <time>2016-03-16T19:42:30Z</time>
      </trkpt>
      <trkpt lat="44.11419" lon="6.85421">
        <ele>1260</ele>
        <time>2016-03-16T19:44:30Z</time>
      </trkpt>
      <trkpt lat="44.11452" lon="6.85348">
        <ele>1271</ele>
        <time>2016-03-16T19:46:30Z</time>
      </trkpt>
      <trkpt lat="44.11313" lon="6.85307">
        <ele>1246</ele>
        <time>2016-03-16T19:48:30Z</time>
      </trkpt>
      <trkpt lat="44.11305" lon="6.85279">
        <ele>1249</ele>
        <time>2016-03-16T19:50:30Z</time>
      </trkpt>
      <trkpt lat="44.11252" lon="6.85292">
        <ele>1234</ele>
        <time>2016-03-16T19:52:30Z</time>
      </trkpt>
      <trkpt lat="44.11162" lon="6.85253">
        <ele>1215</ele>
        <time>2016-03-16T19:54:30Z</time>
      </trkpt>
      <trkpt lat="44.11145" lon="6.85296">
        <ele>1203</ele>
        <time>2016-03-16T19:56:30Z</time>
      </trkpt>
      <trkpt lat="44.11119" lon="6.85219">
        <ele>1201</ele>
        <time>2016-03-16T19:58:30Z</time>
      </trkpt>
      <trkpt lat="44.11097" lon="6.85255">
        <ele>1192</ele>
        <time>2016-03-16T20:00:30Z</time>
      </trkpt>
      <trkpt lat="44.11079" lon="6.85219">
        <ele>1186</ele>
        <time>2016-03-16T20:02:30Z</time>
      </trkpt>
      <trkpt lat="44.1104" lon="6.85227">
        <ele>1171</ele>
        <time>2016-03-16T20:04:30Z</time>
      </trkpt>
      <trkpt lat="44.11011" lon="6.85217">
        <ele>1159</ele>
        <time>2016-03-16T20:06:30Z</time>
      </trkpt>
      <trkpt lat="44.10968" lon="6.85219">
        <ele>1143</ele>
        <time>2016-03-16T20:08:30Z</time>
      </trkpt>
      <trkpt lat="44.10914" lon="6.85208">
        <ele>1121</ele>
        <time>2016-03-16T20:10:30Z</time>
      </trkpt>
      <trkpt lat="44.10874" lon="6.85215">
        <ele>1109</ele>
        <time>2016-03-16T20:12:30Z</time>
      </trkpt>
      <trkpt lat="44.10852" lon="6.85191">
        <ele>1098</ele>
        <time>2016-03-16T20:14:30Z</time>
      </trkpt>
      <trkpt lat="44.10823" lon="6.85195">
        <ele>1089</ele>
        <time>2016-03-16T20:16:30Z</time>
      </trkpt>
      <trkpt lat="44.10822" lon="6.85161">
        <ele>1085</ele>
        <time>2016-03-16T20:18:30Z</time>
      </trkpt>
      <trkpt lat="44.10771" lon="6.85157">
        <ele>1073</ele>
        <time>2016-03-16T20:20:30Z</time>
      </trkpt>
      <trkpt lat="44.10732" lon="6.85195">
        <ele>1059</ele>
        <time>2016-03-16T20:22:30Z</time>
      </trkpt>
      <trkpt lat="44.10726" lon="6.85124">
        <ele>1044</ele>
        <time>2016-03-16T20:24:30Z</time>
      </trkpt>
      <trkpt lat="44.10706" lon="6.85127">
        <ele>1037</ele>
        <time>2016-03-16T20:26:30Z</time>
      </trkpt>
      <trkpt lat="44.10685" lon="6.85176">
        <ele>1035</ele>
        <time>2016-03-16T20:28:30Z</time>
      </trkpt>
      <trkpt lat="44.10686" lon="6.85071">
        <ele>1015</ele>
        <time>2016-03-16T20:30:30Z</time>
      </trkpt>
      <trkpt lat="44.10675" lon="6.85064">
        <ele>1010</ele>
        <time>2016-03-16T20:32:30Z</time>
      </trkpt>
      <trkpt lat="44.10649" lon="6.85099">
        <ele>1006</ele>
        <time>2016-03-16T20:34:30Z</time>
      </trkpt>
      <trkpt lat="44.10658" lon="6.85039">
        <ele>996</ele>
        <time>2016-03-16T20:36:30Z</time>
      </trkpt>
      <trkpt lat="44.10638" lon="6.85023">
        <ele>984</ele>
        <time>2016-03-16T20:38:30Z</time>
      </trkpt>
      <trkpt lat="44.10618" lon="6.85014">
        <ele>974</ele>
        <time>2016-03-16T20:40:30Z</time>
      </trkpt>
      <trkpt lat="44.10607" lon="6.84972">
        <ele>960</ele>
        <time>2016-03-16T20:42:30Z</time>
      </trkpt>
      <trkpt lat="44.10588" lon="6.85009">
        <ele>963</ele>
        <time>2016-03-16T20:44:30Z</time>
      </trkpt>
      <trkpt lat="44.10581" lon="6.8498">
        <ele>955</ele>
        <time>2016-03-16T20:46:30Z</time>
      </trkpt>
      <trkpt lat="44.10563" lon="6.85017">
        <ele>950</ele>
        <time>2016-03-16T20:48:30Z</time>
      </trkpt>
      <trkpt lat="44.10569" lon="6.8496">
        <ele>944</ele>
        <time>2016-03-16T20:50:30Z</time>
      </trkpt>
      <trkpt lat="44.10552" lon="6.84892">
        <ele>918</ele>
        <time>2016-03-16T20:52:30Z</time>
      </trkpt>
      <trkpt lat="44.10518" lon="6.84903">
        <ele>908</ele>
        <time>2016-03-16T20:54:30Z</time>
      </trkpt>
      <trkpt lat="44.10502" lon="6.84873">
        <ele>893</ele>
        <time>2016-03-16T20:56:30Z</time>
      </trkpt>
      <trkpt lat="44.10478" lon="6.84949">
        <ele>896</ele>
        <time>2016-03-16T20:58:30Z</time>
      </trkpt>
      <trkpt lat="44.10469" lon="6.8488">
        <ele>879</ele>
        <time>2016-03-16T21:00:30Z</time>
      </trkpt>
      <trkpt lat="44.10438" lon="6.84884">
        <ele>865</ele>
        <time>2016-03-16T21:02:30Z</time>
      </trkpt>
      <trkpt lat="44.10557" lon="6.84691">
        <ele>862</ele>
        <time>2016-03-16T21:04:30Z</time>
      </trkpt>
      <trkpt lat="44.10524" lon="6.84697">
        <ele>855</ele>
        <time>2016-03-16T21:06:30Z</time>
      </trkpt>
      <trkpt lat="44.10444" lon="6.84822">
        <ele>856</ele>
        <time>2016-03-16T21:08:30Z</time>
      </trkpt>
      <trkpt lat="44.10393" lon="6.84936">
        <ele>855</ele>
        <time>2016-03-16T21:10:30Z</time>
      </trkpt>
      <trkpt lat="44.10184" lon="6.84897">
        <ele>837</ele>
        <time>2016-03-16T21:12:30Z</time>
      </trkpt>
      <trkpt lat="44.10073" lon="6.8483">
        <ele>816</ele>
        <time>2016-03-16T21:14:30Z</time>
      </trkpt>
      <trkpt lat="44.09931" lon="6.84912">
        <ele>833</ele>
        <time>2016-03-16T21:16:30Z</time>
      </trkpt>
      <trkpt lat="44.09829" lon="6.84936">
        <ele>821</ele>
        <time>2016-03-16T21:18:30Z</time>
      </trkpt>
      <trkpt lat="44.09695" lon="6.85004">
        <ele>810</ele>
        <time>2016-03-16T21:20:30Z</time>
      </trkpt>
      <trkpt lat="44.09549" lon="6.85167">
        <ele>837</ele>
        <time>2016-03-16T21:22:30Z</time>
      </trkpt>
      <trkpt lat="44.09406" lon="6.85258">
        <ele>830</ele>
        <time>2016-03-16T21:24:30Z</time>
      </trkpt>
      <trkpt lat="44.09321" lon="6.85253">
        <ele>807</ele>
        <time>2016-03-16T21:26:30Z</time>
      </trkpt>
      <trkpt lat="44.09261" lon="6.85223">
        <ele>797</ele>
        <time>2016-03-16T21:28:30Z</time>
      </trkpt>
      <trkpt lat="44.09054" lon="6.8532">
        <ele>793</ele>
        <time>2016-03-16T21:30:30Z</time>
      </trkpt>
    </trkseg>
  </trk>
</gpx>